createdAt,value
2023-03-28T00:09:28.371Z,22.56
2023-03-28T00:19:31.551Z,22.56
2023-03-28T00:29:34.737Z,22.56
2023-03-28T00:39:37.952Z,22.56
2023-03-28T00:49:41.680Z,22.56
2023-03-28T00:59:44.885Z,22.54
2023-03-28T01:09:48.050Z,22.54
2023-03-28T01:19:51.256Z,22.54
2023-03-28T01:29:54.402Z,22.54
2023-03-28T01:39:57.587Z,22.56
2023-03-28T01:50:00.744Z,22.53
2023-03-28T02:00:03.933Z,22.54
2023-03-28T02:10:07.114Z,22.56
2023-03-28T02:20:10.316Z,22.53
2023-03-28T02:30:13.463Z,22.53
2023-03-28T02:40:16.663Z,22.53
2023-03-28T02:50:19.816Z,22.53
2023-03-28T03:00:23.012Z,22.53
2023-03-28T03:10:26.166Z,22.52
2023-03-28T03:20:29.432Z,22.52
2023-03-28T03:30:32.580Z,22.53
2023-03-28T03:40:35.789Z,22.50
2023-03-28T03:50:38.970Z,22.49
2023-03-28T04:00:42.176Z,22.52
2023-03-28T04:10:47.198Z,22.52
2023-03-28T04:20:47.997Z,22.50
2023-03-28T04:30:51.159Z,22.50
2023-03-28T04:40:54.357Z,22.50
2023-03-28T04:50:57.556Z,22.50
2023-03-28T05:01:00.954Z,22.49
2023-03-28T05:11:04.236Z,22.49
2023-03-28T05:21:07.473Z,22.49
2023-03-28T05:31:10.619Z,22.47
2023-03-28T05:41:13.821Z,22.46
2023-03-28T05:51:16.984Z,22.44
2023-03-28T06:01:20.240Z,22.46
2023-03-28T06:11:23.413Z,22.44
2023-03-28T06:21:26.704Z,22.47
2023-03-28T06:31:29.894Z,22.50
2023-03-28T06:41:33.183Z,22.50
2023-03-28T06:51:36.328Z,22.56
2023-03-28T07:01:39.635Z,22.62
2023-03-28T07:11:42.876Z,22.64
2023-03-28T07:21:46.111Z,22.64
2023-03-28T07:31:49.341Z,22.60
2023-03-28T07:41:52.712Z,22.59
2023-03-28T07:51:56.155Z,22.59
2023-03-28T08:01:59.354Z,22.62
2023-03-28T08:12:02.572Z,22.65
2023-03-28T08:22:05.767Z,22.65
2023-03-28T08:32:08.920Z,22.68
2023-03-28T08:42:14.061Z,22.68
2023-03-28T08:52:14.797Z,22.72
2023-03-28T09:02:19.082Z,22.75
2023-03-28T09:12:22.314Z,22.78
2023-03-28T09:22:25.530Z,22.78
2023-03-28T09:32:28.712Z,22.78
2023-03-28T09:42:31.968Z,22.78
2023-03-28T09:52:35.170Z,22.77
2023-03-28T10:02:38.413Z,22.77
2023-03-28T10:12:42.135Z,22.74
2023-03-28T10:40:47.118Z,21.74
2023-03-28T10:50:50.322Z,22.32
2023-03-28T11:00:53.508Z,22.54
2023-03-28T11:10:56.648Z,22.65
2023-03-28T11:21:00.008Z,22.68
2023-03-28T11:31:03.578Z,22.71
2023-03-28T11:41:06.920Z,22.69
2023-03-28T11:51:10.169Z,22.71
2023-03-28T12:01:13.436Z,22.71
2023-03-28T12:11:16.614Z,22.71
2023-03-28T12:21:19.818Z,22.72
2023-03-28T12:31:23.031Z,22.75
2023-03-28T12:41:26.305Z,22.77
2023-03-28T12:51:29.472Z,22.78
2023-03-28T13:01:32.847Z,22.78
2023-03-28T13:11:35.989Z,22.78
2023-03-28T13:21:39.201Z,22.80
2023-03-28T13:31:42.465Z,22.80
2023-03-28T13:41:45.720Z,22.80
2023-03-28T13:51:48.891Z,22.87
2023-03-28T14:01:52.158Z,22.90
2023-03-28T14:11:55.364Z,22.89
2023-03-28T14:21:58.561Z,22.89
2023-03-28T14:32:01.747Z,22.89
2023-03-28T14:42:04.948Z,22.87
2023-03-28T14:52:08.100Z,22.86
2023-03-28T15:02:11.456Z,22.86
2023-03-28T15:12:14.665Z,22.84
2023-03-28T15:22:17.896Z,22.84
2023-03-28T15:32:21.092Z,22.84
2023-03-28T15:42:24.346Z,22.84
2023-03-28T15:52:27.492Z,22.84
2023-03-28T16:02:30.764Z,22.84
2023-03-28T16:12:33.994Z,22.84
2023-03-28T16:22:37.181Z,22.84
2023-03-28T16:32:40.425Z,22.83
2023-03-28T16:42:43.639Z,22.83
2023-03-28T16:52:46.794Z,22.82
2023-03-28T17:02:50.123Z,22.82
2023-03-28T17:12:53.347Z,22.82
2023-03-28T17:22:56.543Z,22.80
2023-03-28T17:32:59.731Z,22.80
2023-03-28T17:43:02.955Z,22.78
2023-03-28T17:53:06.110Z,22.78
2023-03-28T18:03:10.251Z,22.78
2023-03-28T18:13:13.452Z,22.77
2023-03-28T18:23:16.650Z,22.75
2023-03-28T18:33:19.809Z,22.77
2023-03-28T18:43:22.981Z,22.77
2023-03-28T18:53:26.119Z,22.74
2023-03-28T19:03:29.462Z,22.74
2023-03-28T19:13:32.746Z,22.75
2023-03-28T19:23:35.931Z,22.74
2023-03-28T19:33:39.127Z,22.72
2023-03-28T19:43:42.333Z,22.72
2023-03-28T19:53:45.486Z,22.74
2023-03-28T20:03:48.691Z,22.74
2023-03-28T20:13:51.838Z,22.74
2023-03-28T20:23:55.295Z,22.72
2023-03-28T20:33:58.453Z,22.72
2023-03-28T20:44:01.676Z,22.71
2023-03-28T20:54:04.847Z,22.71
2023-03-28T21:04:08.049Z,22.72
2023-03-28T21:14:11.194Z,22.71
2023-03-28T21:24:14.395Z,22.69
2023-03-28T21:34:17.547Z,22.71
2023-03-28T21:44:20.773Z,22.69
2023-03-28T21:54:23.930Z,22.69
2023-03-28T22:04:27.174Z,22.69
2023-03-28T22:14:30.329Z,22.68
2023-03-28T22:24:33.523Z,22.69
2023-03-28T22:34:36.673Z,22.69
2023-03-28T22:44:39.882Z,22.69
2023-03-28T22:54:43.045Z,22.68
2023-03-28T23:04:46.270Z,22.68
2023-03-28T23:14:49.474Z,22.68
2023-03-28T23:24:52.682Z,22.67
2023-03-28T23:34:55.889Z,22.67
2023-03-28T23:44:59.080Z,22.67
2023-03-28T23:55:02.214Z,22.67
